Terminal Aerodrome Forecast
Issued by NWS

Home | Current Version | Previous Version | Text Only | Print | Product List | Glossary Off
Versions: 1 2 3 4 5 6 7 8 9 10 11 12 13 14

000
FTUS43 KICT 232039 AAA
TAFRSL
TAF AMD
KRSL 232039Z 2321/2418 33021G29KT 4SM -SN SCT009 OVC015
      TEMPO 2321/2324 2SM -SN OVC009
     FM240100 34020G28KT P6SM OVC020=

USA.gov is the U.S. government's official web portal to all federal, state and local government web resources and services.